Time;durP1;ratioP1;P1;durP2;ratioP2;P2;SDS_P1;SDS_P2;PMS_P1;PMS_P2;Temp;Humidity;BMP_temperature;BMP_pressure;BME280_temperature;BME280_humidity;BME280_pressure;Samples;Min_cycle;Max_cycle;Signal;HPM_P1;HPM_P2
2021/06/04 07:09:37;;;;;;;3.65;3.35;;;;;;;23.94;66.98;101362.63;5144573;27;20523;-75
2021/06/04 07:12:06;;;;;;;3.67;3.35;;;;;;;23.93;63.48;101362.94;5111466;27;20805;-75
2021/06/04 07:14:35;;;;;;;4.78;3.45;;;;;;;24.37;62.49;101370.09;5091110;28;20311;-76
2021/06/04 07:17:02;;;;;;;3.97;3.67;;;;;;;24.29;61.57;101383.31;5105256;28;20641;-76
2021/06/04 07:19:34;;;;;;;3.78;3.50;;;;;;;24.65;60.21;101365.50;5054231;28;20251;-75
2021/06/04 07:22:03;;;;;;;3.78;3.28;;;;;;;24.77;60.96;101371.03;5068601;28;20214;-75
2021/06/04 07:24:29;;;;;;;3.88;3.47;;;;;;;24.72;59.31;101365.72;5086654;28;20185;-77
2021/06/04 07:27:00;;;;;;;3.83;3.53;;;;;;;25.09;57.85;101370.09;5085349;28;20230;-75
2021/06/04 07:29:27;;;;;;;4.00;3.70;;;;;;;24.74;56.94;101363.38;5086184;28;20205;-75
2021/06/04 07:31:55;;;;;;;4.35;4.05;;;;;;;24.86;56.19;101369.75;5035170;28;20230;-75
2021/06/04 07:34:27;;;;;;;4.45;4.15;;;;;;;25.05;56.03;101371.97;5086577;28;20228;-76
2021/06/04 07:36:54;;;;;;;5.18;4.78;;;;;;;25.13;56.47;101358.72;5085900;28;20221;-73
2021/06/04 07:39:28;;;;;;;6.38;4.57;;;;;;;25.13;55.84;101359.88;5053255;28;20753;-75
2021/06/04 07:41:56;;;;;;;4.65;4.25;;;;;;;25.10;56.21;101372.53;5081911;28;20223;-77
2021/06/04 07:44:23;;;;;;;4.63;4.18;;;;;;;25.21;56.03;101374.47;5070168;28;20256;-76
2021/06/04 07:46:50;;;;;;;5.82;4.30;;;;;;;25.50;54.47;101365.81;5050941;28;20235;-75
2021/06/04 07:49:15;;;;;;;4.80;4.30;;;;;;;25.91;54.91;101370.97;5067061;28;20689;-76
2021/06/04 07:51:46;;;;;;;4.10;3.70;;;;;;;25.71;52.44;101366.44;5034643;28;20613;-75
2021/06/04 07:54:14;;;;;;;3.80;3.50;;;;;;;26.09;52.72;101368.31;5069317;28;20178;-76
2021/06/04 07:56:40;;;;;;;3.80;3.50;;;;;;;26.21;52.20;101372.97;5016899;28;20708;-74
2021/06/04 07:59:08;;;;;;;4.20;3.80;;;;;;;26.20;51.10;101374.97;5048791;28;20222;-75
2021/06/04 08:01:41;;;;;;;3.40;3.10;;;;;;;26.46;51.68;101380.84;5064784;28;20729;-75
2021/06/04 08:04:07;;;;;;;3.55;3.25;;;;;;;26.23;52.85;101374.28;5064972;28;20179;-76
2021/06/04 08:06:35;;;;;;;3.50;3.20;;;;;;;25.98;52.81;101374.75;5066234;28;20268;-75
2021/06/04 08:09:02;;;;;;;3.47;3.17;;;;;;;25.87;51.33;101375.63;5050621;28;20217;-75
2021/06/04 08:11:35;;;;;;;3.45;3.17;;;;;;;26.08;50.91;101375.06;5065636;28;20231;-76
2021/06/04 08:14:06;;;;;;;3.90;3.00;;;;;;;26.25;51.73;101360.81;5018462;28;20186;-75
2021/06/04 08:16:34;;;;;;;3.65;2.97;;;;;;;25.95;51.77;101373.50;5035764;28;20214;-75
2021/06/04 08:19:00;;;;;;;4.25;3.00;;;;;;;25.72;51.93;101373.63;5077563;28;20191;-76
2021/06/04 08:21:32;;;;;;;3.25;2.95;;;;;;;26.37;51.46;101363.50;5057612;28;20460;-75
2021/06/04 08:24:00;;;;;;;3.22;2.92;;;;;;;26.53;51.55;101367.09;5071878;28;20617;-74
2021/06/04 08:26:31;;;;;;;4.35;2.80;;;;;;;26.56;53.55;101367.19;5072878;28;20222;-76
2021/06/04 08:28:57;;;;;;;3.55;2.58;;;;;;;26.87;50.84;101376.34;5072039;28;20684;-76
2021/06/04 08:31:25;;;;;;;3.10;2.90;;;;;;;26.42;51.92;101361.25;5054998;28;20274;-75
2021/06/04 08:33:51;;;;;;;3.65;2.83;;;;;;;26.33;51.97;101373.75;5037937;28;20191;-75
2021/06/04 08:36:24;;;;;;;3.20;2.90;;;;;;;26.35;51.33;101376.97;5022685;28;20575;-76
2021/06/04 08:38:49;;;;;;;4.38;3.20;;;;;;;26.14;49.38;101370.84;5054968;28;20336;-75
2021/06/04 08:41:26;;;;;;;4.18;2.90;;;;;;;26.19;50.53;101370.56;5054064;28;20241;-74
2021/06/04 08:44:11;;;;;;;2.78;2.53;;;;;;;26.69;48.74;101370.69;5053643;28;20644;-76
2021/06/04 08:46:39;;;;;;;2.75;2.55;;;;;;;26.80;47.66;101370.56;5055168;28;20227;-74
2021/06/04 08:49:18;;;;;;;2.85;2.65;;;;;;;27.27;46.30;101365.69;5071191;28;20214;-75
2021/06/04 08:52:12;;;;;;;4.43;2.67;;;;;;;27.53;45.35;101370.28;5054184;28;20233;-76
2021/06/04 08:55:08;;;;;;;2.70;2.50;;;;;;;27.37;47.35;101359.53;5071368;28;20179;-75
2021/06/04 08:57:53;;;;;;;2.70;2.50;;;;;;;27.77;47.92;101353.22;5054455;28;20222;-75
2021/06/04 09:00:25;;;;;;;2.40;2.25;;;;;;;27.63;46.76;101358.53;5053565;28;20402;-75
2021/06/04 09:02:59;;;;;;;2.58;2.38;;;;;;;27.30;46.88;101364.97;5053516;28;20254;-75
2021/06/04 09:05:39;;;;;;;2.38;2.25;;;;;;;27.46;46.99;101352.59;5037700;28;20218;-74
2021/06/04 09:08:10;;;;;;;2.67;2.47;;;;;;;27.59;44.55;101354.06;5054409;28;20233;-74
2021/06/04 09:10:48;;;;;;;2.65;2.45;;;;;;;27.90;44.46;101357.47;5037025;28;20234;-74
2021/06/04 09:13:23;;;;;;;2.80;2.50;;;;;;;27.89;44.13;101353.03;5069402;28;20179;-73
2021/06/04 09:15:48;;;;;;;2.80;2.60;;;;;;;27.88;44.68;101359.03;5070149;28;20226;-74
2021/06/04 09:18:44;;;;;;;3.35;2.70;;;;;;;28.31;44.52;101358.28;5054096;28;20195;-74
2021/06/04 09:21:17;;;;;;;3.55;2.40;;;;;;;27.73;44.52;101357.09;5066038;28;20222;-75
2021/06/04 09:23:45;;;;;;;2.63;2.42;;;;;;;27.45;44.42;101364.13;5037925;28;20194;-76
2021/06/04 09:26:14;;;;;;;2.80;2.60;;;;;;;27.49;43.74;101358.25;5036684;28;20226;-74
2021/06/04 09:28:47;;;;;;;2.92;2.63;;;;;;;28.18;44.09;101360.81;5070463;28;20567;-75
2021/06/04 09:31:37;;;;;;;3.10;2.47;;;;;;;27.76;45.21;101362.78;5068830;28;20288;-75
2021/06/04 09:34:17;;;;;;;2.55;2.35;;;;;;;28.06;44.33;101369.41;5036658;28;20183;-75
2021/06/04 09:36:44;;;;;;;2.97;2.67;;;;;;;28.25;45.11;101358.94;5069768;28;20214;-76
2021/06/04 09:39:33;;;;;;;2.78;2.40;;;;;;;28.60;43.53;101354.78;5053766;28;20211;-76
2021/06/04 09:42:08;;;;;;;2.63;2.42;;;;;;;28.53;41.36;101351.84;5050261;28;20219;-76
2021/06/04 09:44:47;;;;;;;3.17;2.47;;;;;;;28.46;42.29;101365.72;5051823;28;20277;-74
2021/06/04 09:47:23;;;;;;;2.72;2.53;;;;;;;27.96;43.50;101367.16;5035681;28;20227;-75
2021/06/04 09:49:49;;;;;;;3.00;2.65;;;;;;;27.50;43.35;101351.47;5036551;28;20194;-75
2021/06/04 09:52:40;;;;;;;2.78;2.58;;;;;;;27.31;43.97;101361.81;5046645;28;20276;-73
2021/06/04 09:55:22;;;;;;;2.58;2.38;;;;;;;28.07;42.02;101354.22;5064430;28;20210;-74
2021/06/04 09:58:01;;;;;;;3.28;2.97;;;;;;;28.01;40.63;101358.47;5071269;28;20293;-78
2021/06/04 10:00:48;;;;;;;3.15;2.72;;;;;;;27.88;41.19;101349.44;5053070;28;20191;-75
2021/06/04 10:03:20;;;;;;;3.60;2.78;;;;;;;28.40;40.82;101344.03;5069186;28;20179;-74
2021/06/04 10:05:48;;;;;;;3.53;2.70;;;;;;;28.77;41.66;101354.25;5064961;28;20249;-75
2021/06/04 10:08:20;;;;;;;2.63;2.40;;;;;;;28.96;40.79;101349.38;5016993;28;20207;-75
2021/06/04 10:10:45;;;;;;;2.80;2.40;;;;;;;29.39;39.75;101355.19;5059577;28;20228;-76
2021/06/04 10:13:34;;;;;;;2.70;2.50;;;;;;;29.28;41.37;101347.84;5035629;28;20637;-76
2021/06/04 10:16:02;;;;;;;3.22;2.50;;;;;;;29.76;40.22;101339.25;5048671;28;20214;-76
2021/06/04 10:18:38;;;;;;;3.08;2.78;;;;;;;29.70;37.76;101344.38;5070573;28;20704;-75
2021/06/04 10:21:25;;;;;;;2.25;2.15;;;;;;;29.78;39.79;101342.47;5069043;28;20275;-76
2021/06/04 10:23:56;;;;;;;2.40;2.20;;;;;;;30.21;41.31;101343.34;5052376;28;20225;-76
2021/06/04 10:26:35;;;;;;;3.38;2.70;;;;;;;29.39;38.35;101341.19;5032945;28;20332;-75
2021/06/04 10:29:03;;;;;;;2.70;2.50;;;;;;;29.26;39.01;101339.81;5047048;28;20203;-74
2021/06/04 10:31:48;;;;;;;2.95;2.38;;;;;;;29.88;39.46;101329.38;5055754;28;20285;-75
2021/06/04 10:34:35;;;;;;;4.00;2.63;;;;;;;30.51;36.54;101330.00;5067692;28;20179;-74
2021/06/04 10:37:06;;;;;;;3.42;2.55;;;;;;;30.50;35.95;101328.41;5068442;28;20226;-75
2021/06/04 10:39:38;;;;;;;2.90;2.70;;;;;;;30.92;35.75;101335.97;5035266;28;20172;-75
2021/06/04 10:42:30;;;;;;;2.80;2.60;;;;;;;30.46;35.43;101334.00;5045294;28;20222;-75
2021/06/04 10:45:06;;;;;;;2.67;2.47;;;;;;;30.18;37.52;101335.69;5036046;28;20267;-76
2021/06/04 10:48:10;;;;;;;2.95;2.63;;;;;;;30.50;35.74;101343.25;5066808;28;20230;-76
2021/06/04 10:50:49;;;;;;;2.58;2.38;;;;;;;30.54;35.86;101329.22;5069459;28;20230;-75
2021/06/04 10:53:38;;;;;;;2.28;2.17;;;;;;;30.97;35.68;101327.19;5020411;28;20197;-77
2021/06/04 10:56:34;;;;;;;2.83;2.60;;;;;;;30.94;35.51;101321.53;5038220;28;20708;-76
2021/06/04 10:59:23;;;;;;;2.70;2.50;;;;;;;30.70;34.87;101320.13;5052747;28;20202;-74
2021/06/04 11:02:05;;;;;;;2.40;2.17;;;;;;;30.98;34.27;101334.38;5051096;28;20223;-76
2021/06/04 11:04:42;;;;;;;2.80;2.60;;;;;;;31.03;35.71;101325.59;5053986;28;20660;-77
2021/06/04 11:07:26;;;;;;;3.47;3.17;;;;;;;30.69;37.02;101332.53;5052141;28;20219;-76
2021/06/04 11:10:16;;;;;;;2.90;2.70;;;;;;;29.79;37.52;101332.91;5054507;28;20189;-77
2021/06/04 11:13:23;;;;;;;2.70;2.50;;;;;;;29.52;39.32;101329.38;5052058;28;20214;-75
2021/06/04 11:16:15;;;;;;;3.42;2.95;;;;;;;29.99;38.74;101329.50;4981057;28;20243;-74
2021/06/04 11:18:46;;;;;;;4.50;3.50;;;;;;;30.05;38.05;101320.34;5072792;28;20210;-75
2021/06/04 11:21:43;;;;;;;2.42;2.22;;;;;;;30.57;39.05;101317.22;5071431;28;20224;-76
2021/06/04 11:24:19;;;;;;;4.05;2.70;;;;;;;31.11;36.89;101311.19;5084023;28;20190;-74
2021/06/04 11:26:54;;;;;;;3.40;2.50;;;;;;;30.58;35.70;101321.66;5072335;28;20304;-74
2021/06/04 11:29:22;;;;;;;2.67;2.47;;;;;;;30.42;36.69;101319.13;5055393;28;20237;-74
2021/06/04 11:32:07;;;;;;;2.60;2.40;;;;;;;30.68;37.53;101305.69;5071259;28;20233;-74
2021/06/04 11:34:38;;;;;;;2.42;2.22;;;;;;;30.95;36.56;101303.47;5071595;28;20189;-74
2021/06/04 11:37:05;;;;;;;3.05;2.45;;;;;;;30.13;37.67;101308.03;5071432;28;20782;-75
2021/06/04 11:39:35;;;;;;;2.78;2.30;;;;;;;30.58;37.63;101290.78;5071803;28;20174;-75
2021/06/04 11:42:08;;;;;;;2.40;2.20;;;;;;;30.85;37.25;101296.59;5054520;28;20226;-74
2021/06/04 11:44:48;;;;;;;3.08;2.67;;;;;;;30.38;37.34;101297.84;5067381;28;20278;-77
2021/06/04 11:47:17;;;;;;;2.88;2.58;;;;;;;30.93;36.28;101298.25;5051044;28;20741;-77
2021/06/04 11:49:54;;;;;;;3.97;2.30;;;;;;;30.97;35.36;101293.47;5088667;28;20214;-77
2021/06/04 11:52:41;;;;;;;2.40;2.20;;;;;;;31.43;35.50;101293.31;5087176;28;20336;-77
2021/06/04 11:55:36;;;;;;;2.78;2.58;;;;;;;31.99;35.28;101305.50;5074128;28;20186;-75
2021/06/04 11:58:41;;;;;;;2.40;2.20;;;;;;;32.05;35.20;101297.47;5075409;28;20225;-77
2021/06/04 12:01:18;;;;;;;2.22;2.00;;;;;;;31.78;34.76;101296.22;5075048;28;20628;-76
2021/06/04 12:04:01;;;;;;;2.25;2.00;;;;;;;31.90;35.74;101293.03;5074901;28;20182;-76
2021/06/04 12:06:37;;;;;;;2.33;2.15;;;;;;;31.43;36.15;101296.13;5077132;28;20279;-78
2021/06/04 12:09:29;;;;;;;2.28;2.10;;;;;;;31.56;37.21;101302.97;5059026;28;20213;-77
2021/06/04 12:12:20;;;;;;;2.75;2.30;;;;;;;30.94;37.79;101288.63;5076737;28;20305;-74
2021/06/04 12:14:58;;;;;;;3.90;3.50;;;;;;;30.72;38.35;101291.69;5091718;28;20194;-77
2021/06/04 12:17:31;;;;;;;2.78;2.58;;;;;;;31.27;38.00;101282.78;5101268;28;20262;-79
2021/06/04 12:20:38;;;;;;;2.85;2.53;;;;;;;31.18;39.06;101282.34;5085059;28;20197;-79
2021/06/04 12:23:12;;;;;;;2.53;2.35;;;;;;;31.59;36.07;101284.50;5101325;28;20213;-79
2021/06/04 12:25:37;;;;;;;3.65;2.30;;;;;;;31.19;38.47;101278.31;5093751;28;20237;-79
2021/06/04 12:28:19;;;;;;;2.88;2.67;;;;;;;31.18;38.33;101279.53;5116110;28;20229;-78
2021/06/04 12:31:34;;;;;;;3.33;2.60;;;;;;;31.18;38.88;101276.72;5098484;28;20225;-77
2021/06/04 12:34:02;;;;;;;2.80;2.60;;;;;;;30.74;40.05;101276.03;5090961;28;20202;-77
2021/06/04 12:36:43;;;;;;;2.65;2.55;;;;;;;30.85;39.30;101268.53;5113803;28;20241;-79
2021/06/04 12:39:20;;;;;;;2.88;2.67;;;;;;;30.67;40.59;101263.97;5110189;28;20194;-78
2021/06/04 12:41:48;;;;;;;3.28;2.78;;;;;;;30.62;41.07;101263.53;5112124;28;20254;-78
2021/06/04 12:44:16;;;;;;;3.05;2.80;;;;;;;30.26;41.01;101268.09;5095926;28;20673;-78
2021/06/04 12:46:48;;;;;;;2.72;2.30;;;;;;;30.51;40.31;101268.28;5111439;28;20225;-78
2021/06/04 12:49:14;;;;;;;2.80;2.60;;;;;;;30.44;40.35;101257.81;5078378;28;20278;-77
2021/06/04 12:51:44;;;;;;;2.50;2.30;;;;;;;30.42;39.18;101253.78;5076936;28;20706;-78
2021/06/04 12:54:22;;;;;;;2.50;2.30;;;;;;;30.14;40.42;101249.94;5077843;28;20189;-77
2021/06/04 12:56:52;;;;;;;2.85;2.50;;;;;;;30.35;42.49;101253.75;5073704;28;20806;-78
2021/06/04 12:59:23;;;;;;;2.88;2.67;;;;;;;31.08;39.57;101243.75;5073770;28;20265;-79
2021/06/04 13:01:54;;;;;;;2.83;2.50;;;;;;;31.25;38.43;101243.03;5079121;28;20218;-78
2021/06/04 13:04:30;;;;;;;2.97;2.78;;;;;;;31.07;38.57;101242.16;5101844;28;20195;-79
2021/06/04 13:06:58;;;;;;;2.83;2.60;;;;;;;30.80;38.30;101249.22;5067575;28;20229;-77
2021/06/04 13:09:32;;;;;;;4.35;3.00;;;;;;;31.01;38.87;101243.75;5089508;28;20564;-77
2021/06/04 13:12:02;;;;;;;8.10;7.30;;;;;;;30.91;39.75;101235.25;5083872;28;20768;-76
2021/06/04 13:14:34;;;;;;;33.95;30.30;;;;;;;31.00;40.26;101230.88;5072237;28;20186;-77
2021/06/04 13:17:31;;;;;;;3.33;3.10;;;;;;;31.15;39.43;101229.75;5091641;28;20210;-79
2021/06/04 13:20:15;;;;;;;3.17;2.88;;;;;;;31.26;38.92;101219.34;5091486;28;20233;-78
2021/06/04 13:22:44;;;;;;;2.95;2.75;;;;;;;31.06;36.65;101229.31;5101605;28;20214;-78
2021/06/04 13:25:29;;;;;;;2.85;2.65;;;;;;;30.97;38.10;101226.09;5087055;28;20189;-78
2021/06/04 13:28:12;;;;;;;2.70;2.50;;;;;;;30.60;39.30;101221.03;5110787;28;20213;-79
2021/06/04 13:30:51;;;;;;;2.90;2.70;;;;;;;30.10;40.62;101219.03;5110222;28;20220;-77
2021/06/04 13:33:24;;;;;;;3.10;2.90;;;;;;;29.99;40.61;101218.16;5070790;28;20276;-77
2021/06/04 13:35:50;;;;;;;3.53;2.90;;;;;;;30.05;40.06;101210.97;5085061;28;20312;-78
2021/06/04 13:38:28;;;;;;;3.35;3.10;;;;;;;30.59;41.85;101222.25;5092023;28;20213;-79
2021/06/04 13:41:33;;;;;;;2.83;2.58;;;;;;;30.60;39.24;101215.41;5073920;28;20228;-80
2021/06/04 13:44:16;;;;;;;3.08;2.60;;;;;;;30.63;38.91;101226.66;5075293;28;20194;-78
2021/06/04 13:47:16;;;;;;;2.58;2.38;;;;;;;31.14;37.73;101228.94;5081839;28;20286;-78
2021/06/04 13:49:52;;;;;;;2.45;2.22;;;;;;;31.18;37.29;101221.31;5061186;28;20185;-80
2021/06/04 13:52:34;;;;;;;3.00;2.80;;;;;;;31.36;36.31;101225.03;5062177;28;20234;-79
2021/06/04 13:55:28;;;;;;;2.80;2.60;;;;;;;31.88;35.53;101205.47;5088059;28;20194;-78
2021/06/04 13:58:43;;;;;;;2.88;2.67;;;;;;;31.66;36.00;101220.66;5079300;28;20207;-77
2021/06/04 14:01:23;;;;;;;2.90;2.67;;;;;;;30.76;37.59;101220.31;5090824;28;20222;-79
2021/06/04 14:04:11;;;;;;;3.25;2.95;;;;;;;29.69;39.72;101218.63;5061337;28;20801;-77
2021/06/04 14:06:52;;;;;;;3.13;2.80;;;;;;;29.48;40.56;101212.84;5077848;28;20274;-77
2021/06/04 14:09:40;;;;;;;3.50;2.95;;;;;;;29.72;40.11;101215.06;5080147;28;20224;-78
2021/06/04 14:12:47;;;;;;;3.10;2.90;;;;;;;29.20;41.01;101211.72;5060570;28;20660;-76
2021/06/04 14:15:43;;;;;;;3.15;2.72;;;;;;;29.11;41.31;101202.78;5055152;28;20777;-76
2021/06/04 14:18:44;;;;;;;3.00;2.80;;;;;;;29.46;41.21;101193.59;5057825;28;20218;-79
2021/06/04 14:21:35;;;;;;;2.95;2.75;;;;;;;29.32;42.68;101209.47;5088658;28;20223;-80
2021/06/04 14:24:25;;;;;;;3.38;3.00;;;;;;;29.69;42.43;101196.22;5090677;28;20726;-79
2021/06/04 14:27:00;;;;;;;3.47;2.92;;;;;;;29.44;40.77;101202.78;5074146;28;20237;-78
2021/06/04 14:29:46;;;;;;;3.25;2.92;;;;;;;29.39;41.19;101195.53;5057423;28;20182;-78
2021/06/04 14:32:20;;;;;;;3.45;2.95;;;;;;;29.70;40.17;101186.63;5073499;28;20701;-77
2021/06/04 14:34:58;;;;;;;3.00;2.80;;;;;;;29.45;42.66;101194.00;5090646;28;20273;-77
2021/06/04 14:37:38;;;;;;;3.15;2.95;;;;;;;29.49;41.32;101186.44;5057126;28;20230;-75
2021/06/04 14:40:21;;;;;;;3.00;2.80;;;;;;;29.91;40.41;101184.84;5090183;28;20190;-77
2021/06/04 14:42:49;;;;;;;3.15;2.90;;;;;;;29.62;39.58;101191.38;5074141;28;20229;-77
2021/06/04 14:45:15;;;;;;;3.33;3.05;;;;;;;29.76;40.79;101185.09;5040110;28;20566;-77
2021/06/04 14:47:41;;;;;;;3.00;2.80;;;;;;;29.60;41.13;101176.16;5050347;28;20230;-77
2021/06/04 14:50:20;;;;;;;2.83;2.63;;;;;;;29.89;41.15;101179.63;5072820;28;20182;-77
2021/06/04 14:52:46;;;;;;;4.05;2.95;;;;;;;30.06;41.37;101178.97;5065108;28;20264;-77
2021/06/04 14:55:16;;;;;;;3.30;3.10;;;;;;;30.51;37.81;101170.06;5072953;28;20182;-76
2021/06/04 14:57:41;;;;;;;3.35;3.08;;;;;;;31.40;37.24;101171.66;5073685;28;20305;-77
2021/06/04 15:00:08;;;;;;;3.15;2.80;;;;;;;31.87;36.37;101170.13;5074732;28;20272;-78
2021/06/04 15:02:34;;;;;;;3.17;2.97;;;;;;;32.30;34.58;101162.00;5073197;28;20230;-77
2021/06/04 15:05:04;;;;;;;3.10;2.90;;;;;;;33.23;34.32;101154.44;5090315;28;20273;-77
2021/06/04 15:07:29;;;;;;;3.20;2.90;;;;;;;33.43;33.22;101150.72;5055442;28;20308;-77
2021/06/04 15:10:04;;;;;;;2.70;2.50;;;;;;;32.86;33.17;101150.63;5056180;28;20182;-76
2021/06/04 15:12:32;;;;;;;3.08;2.80;;;;;;;33.00;33.32;101146.53;5071751;28;20210;-77
2021/06/04 15:15:00;;;;;;;3.10;2.78;;;;;;;31.96;37.38;101145.19;5072790;28;20183;-77
2021/06/04 15:17:27;;;;;;;3.17;2.97;;;;;;;30.75;38.58;101161.75;5055226;28;20241;-76
2021/06/04 15:19:55;;;;;;;3.30;3.00;;;;;;;31.02;38.30;101161.09;5072295;28;20278;-76
2021/06/04 15:22:23;;;;;;;3.47;3.17;;;;;;;30.28;38.98;101161.91;5070987;28;20232;-76
2021/06/04 15:24:49;;;;;;;3.88;3.58;;;;;;;30.40;38.27;101155.16;5070425;28;20175;-77
2021/06/04 15:27:17;;;;;;;3.95;3.55;;;;;;;30.07;38.66;101146.91;5083322;28;20713;-76
2021/06/04 15:29:43;;;;;;;4.07;3.28;;;;;;;29.77;39.01;101155.91;5072989;28;20327;-77
2021/06/04 15:35:44;;;;;;;5.85;3.72;;;;;;;29.72;38.87;101145.84;5107475;28;20252;-77
2021/06/04 15:38:18;;;;;;;4.05;3.70;;;;;;;29.83;39.29;101151.53;5098243;28;20206;-77
2021/06/04 15:40:49;;;;;;;4.40;3.40;;;;;;;29.46;39.90;101150.78;5087913;28;20224;-78
2021/06/04 15:43:20;;;;;;;3.45;3.22;;;;;;;29.11;40.69;101152.41;5042222;28;20197;-76
2021/06/04 15:45:46;;;;;;;4.25;3.53;;;;;;;29.47;40.88;101150.41;5069188;28;20210;-76
2021/06/04 15:48:17;;;;;;;4.63;3.60;;;;;;;29.38;40.53;101151.09;5075900;28;20198;-78
2021/06/04 15:50:45;;;;;;;4.15;3.85;;;;;;;29.44;40.79;101150.38;5092625;28;20222;-77
2021/06/04 15:53:14;;;;;;;3.55;3.25;;;;;;;29.22;39.99;101156.94;5075066;28;20178;-76
2021/06/04 15:55:42;;;;;;;3.83;3.53;;;;;;;29.30;40.03;101139.00;5075906;28;20622;-76
2021/06/04 15:58:11;;;;;;;3.53;3.25;;;;;;;28.78;41.30;101144.00;5076503;28;20212;-76
2021/06/04 16:00:41;;;;;;;3.83;3.45;;;;;;;29.05;41.75;101142.75;5079885;28;20230;-76
2021/06/04 16:03:09;;;;;;;4.30;4.00;;;;;;;28.88;42.52;101145.31;5055361;28;20187;-77
2021/06/04 16:05:44;;;;;;;4.38;3.80;;;;;;;29.01;43.04;101141.91;5070153;28;20662;-77
2021/06/04 16:08:10;;;;;;;4.25;3.85;;;;;;;29.22;43.03;101148.53;5089256;28;20286;-77
2021/06/04 16:10:36;;;;;;;4.20;3.90;;;;;;;29.12;43.02;101142.78;5065306;28;20250;-77
2021/06/04 16:13:06;;;;;;;4.30;3.60;;;;;;;29.14;42.19;101141.25;5056079;28;20593;-77
2021/06/04 16:15:35;;;;;;;5.72;3.83;;;;;;;29.33;42.07;101135.47;5069613;28;20222;-76
2021/06/04 16:18:04;;;;;;;4.15;3.60;;;;;;;29.74;41.52;101131.44;5092710;28;20214;-77
2021/06/04 16:20:29;;;;;;;3.90;3.60;;;;;;;29.76;41.00;101129.88;5058561;28;20230;-77
2021/06/04 16:22:55;;;;;;;4.10;3.70;;;;;;;29.89;41.17;101128.38;5074483;28;20193;-76
2021/06/04 16:25:27;;;;;;;4.75;3.50;;;;;;;29.81;41.42;101131.50;5058576;28;20190;-78
2021/06/04 16:27:53;;;;;;;4.07;3.60;;;;;;;29.88;40.66;101133.16;5043686;28;20198;-80
2021/06/04 16:30:23;;;;;;;3.83;3.55;;;;;;;29.52;39.80;101141.66;5094027;28;20239;-77
2021/06/04 16:32:50;;;;;;;3.70;3.40;;;;;;;30.28;39.05;101135.88;5092742;28;20666;-77
2021/06/04 16:35:19;;;;;;;3.75;3.42;;;;;;;30.47;38.96;101138.38;5092572;28;20191;-79
2021/06/04 16:37:47;;;;;;;4.60;3.80;;;;;;;30.62;36.87;101135.22;5060950;28;20233;-77
2021/06/04 16:40:20;;;;;;;3.30;3.10;;;;;;;29.84;37.52;101133.53;5074925;28;20741;-76
2021/06/04 16:42:48;;;;;;;3.70;3.40;;;;;;;29.81;36.48;101135.09;5061178;28;20252;-77
2021/06/04 16:45:16;;;;;;;4.60;3.35;;;;;;;30.84;36.64;101129.34;5092440;28;20205;-77
2021/06/04 16:47:44;;;;;;;3.72;3.20;;;;;;;30.86;36.19;101129.75;5058312;28;20209;-79
2021/06/04 16:50:10;;;;;;;3.70;3.30;;;;;;;30.40;36.87;101138.31;5074022;28;20186;-77
2021/06/04 16:52:36;;;;;;;3.53;3.22;;;;;;;29.83;38.39;101129.91;5074390;28;20196;-78
2021/06/04 16:55:08;;;;;;;3.75;3.17;;;;;;;29.98;37.66;101124.03;5092183;28;20561;-77
2021/06/04 16:57:35;;;;;;;3.53;3.22;;;;;;;29.74;38.55;101131.44;5091873;28;20206;-78
2021/06/04 17:00:05;;;;;;;3.38;3.08;;;;;;;29.63;38.38;101130.53;5076392;28;20179;-78
2021/06/04 17:02:31;;;;;;;3.35;3.05;;;;;;;30.38;36.18;101127.50;5091900;28;20225;-78
2021/06/04 17:04:56;;;;;;;3.38;3.13;;;;;;;30.85;35.77;101122.53;5075477;28;20178;-79
2021/06/04 17:07:25;;;;;;;3.42;3.20;;;;;;;31.50;34.45;101132.31;5076650;28;20283;-78
2021/06/04 17:09:51;;;;;;;3.30;3.00;;;;;;;30.81;36.24;101135.75;5076145;28;20178;-77
2021/06/04 17:12:19;;;;;;;3.30;3.10;;;;;;;30.79;35.45;101134.53;5091649;28;20245;-77
2021/06/04 17:14:44;;;;;;;2.90;2.65;;;;;;;30.58;36.91;101137.22;5058596;28;20279;-76
2021/06/04 17:17:13;;;;;;;3.58;3.10;;;;;;;30.35;37.59;101131.09;5090937;28;20222;-76
2021/06/04 17:19:38;;;;;;;3.33;3.03;;;;;;;30.06;37.53;101127.69;5091581;28;20233;-78
2021/06/04 17:22:06;;;;;;;3.70;3.17;;;;;;;29.78;39.28;101140.69;5090866;28;20335;-78
2021/06/04 17:24:37;;;;;;;3.30;2.90;;;;;;;29.43;37.58;101140.34;5093772;28;20178;-78
2021/06/04 17:27:02;;;;;;;3.15;2.78;;;;;;;28.92;38.33;101140.56;5071205;28;20425;-76
2021/06/04 17:29:28;;;;;;;3.20;2.70;;;;;;;28.84;38.20;101141.69;5055598;28;20191;-77
2021/06/04 17:31:59;;;;;;;3.30;3.00;;;;;;;28.82;38.44;101135.66;5074363;28;20221;-78
2021/06/04 17:34:26;;;;;;;3.45;3.08;;;;;;;28.95;37.75;101148.22;5090827;28;20174;-77
2021/06/04 17:36:53;;;;;;;3.17;2.85;;;;;;;28.97;38.72;101140.22;5087854;28;20225;-79
2021/06/04 17:39:22;;;;;;;2.80;2.60;;;;;;;28.85;38.10;101137.72;5088940;28;20214;-79
2021/06/04 17:41:50;;;;;;;2.90;2.70;;;;;;;28.94;38.50;101138.19;5073834;28;20248;-77
2021/06/04 17:44:23;;;;;;;4.20;3.28;;;;;;;28.89;38.86;101136.56;5092684;28;20182;-77
2021/06/04 17:46:49;;;;;;;3.25;3.05;;;;;;;28.78;39.61;101148.81;5092591;28;20221;-77
2021/06/04 17:49:17;;;;;;;3.05;2.75;;;;;;;28.50;40.74;101153.22;5076414;28;20218;-77
2021/06/04 17:51:45;;;;;;;3.50;3.17;;;;;;;28.46;41.09;101146.75;5072486;28;20221;-78
2021/06/04 17:54:15;;;;;;;3.97;2.90;;;;;;;28.30;41.29;101152.53;5073838;28;20930;-76
2021/06/04 17:56:43;;;;;;;3.30;3.00;;;;;;;28.36;41.59;101151.00;5091668;28;20222;-77
2021/06/04 17:59:09;;;;;;;4.57;3.30;;;;;;;27.86;41.60;101157.38;5075405;28;20217;-78
2021/06/04 18:01:35;;;;;;;3.38;3.08;;;;;;;27.88;44.07;101158.66;5091199;28;20230;-75
2021/06/04 18:04:03;;;;;;;3.90;3.60;;;;;;;28.18;44.79;101156.75;5090509;28;20613;-74
2021/06/04 18:06:31;;;;;;;3.97;3.60;;;;;;;27.85;46.55;101167.75;5074336;28;20611;-75
2021/06/04 18:09:00;;;;;;;4.00;3.60;;;;;;;27.82;47.65;101167.72;5074070;28;20296;-75
2021/06/04 18:11:29;;;;;;;3.42;3.22;;;;;;;27.74;48.91;101164.00;5056580;28;20222;-75
2021/06/04 18:13:57;;;;;;;3.22;3.03;;;;;;;27.43;50.67;101176.56;5073754;28;20187;-75
2021/06/04 18:16:25;;;;;;;4.38;3.97;;;;;;;27.54;50.23;101170.03;5057215;28;20313;-76
2021/06/04 18:18:51;;;;;;;4.18;3.80;;;;;;;27.54;50.57;101173.63;5051443;28;20210;-75
2021/06/04 18:21:19;;;;;;;4.13;3.55;;;;;;;27.40;51.21;101180.09;5055501;28;20376;-75
2021/06/04 18:23:48;;;;;;;3.97;3.67;;;;;;;27.44;51.21;101170.66;5070158;28;20183;-74
2021/06/04 18:26:15;;;;;;;4.40;4.00;;;;;;;27.40;51.10;101180.09;5056708;28;20214;-73
2021/06/04 18:28:44;;;;;;;4.85;4.40;;;;;;;27.13;52.52;101187.56;5074625;28;20202;-74
2021/06/04 18:31:10;;;;;;;4.25;3.85;;;;;;;27.08;53.32;101181.47;5090153;28;20759;-74
2021/06/04 18:33:39;;;;;;;4.30;3.90;;;;;;;26.74;55.19;101185.16;5051055;28;20220;-75
2021/06/04 18:36:07;;;;;;;4.25;3.85;;;;;;;26.93;54.52;101190.75;5074337;28;20264;-75
2021/06/04 18:38:37;;;;;;;7.60;4.18;;;;;;;26.74;56.91;101187.13;5070107;28;20225;-74
2021/06/04 18:41:08;;;;;;;5.28;4.78;;;;;;;26.44;58.96;101193.63;5087267;28;20260;-74
2021/06/04 18:43:40;;;;;;;4.45;4.05;;;;;;;26.50;59.85;101190.19;5089316;28;20208;-75
2021/06/04 18:46:07;;;;;;;7.18;4.57;;;;;;;26.70;60.51;101178.69;5056273;28;20225;-77
2021/06/04 18:48:33;;;;;;;6.03;4.10;;;;;;;26.17;63.63;101180.66;5068137;28;20226;-74
2021/06/04 18:50:59;;;;;;;4.80;4.40;;;;;;;26.56;62.69;101176.78;5080298;28;20218;-75
2021/06/04 18:53:26;;;;;;;5.68;4.90;;;;;;;26.54;61.40;101176.34;5070368;28;20197;-74
2021/06/04 18:55:52;;;;;;;5.50;4.55;;;;;;;26.35;61.58;101181.88;5088406;28;20221;-76
2021/06/04 18:58:19;;;;;;;4.85;4.28;;;;;;;26.13;64.72;101190.88;5072883;28;20218;-75
2021/06/04 19:01:02;;;;;;;5.22;4.65;;;;;;;25.87;66.12;101192.63;5084784;28;20221;-75
2021/06/04 19:03:34;;;;;;;5.70;5.20;;;;;;;26.08;63.51;101191.16;5090519;28;20957;-75
2021/06/04 19:06:07;;;;;;;4.78;4.38;;;;;;;25.98;64.56;101188.91;5069322;28;20224;-74
2021/06/04 19:08:33;;;;;;;5.07;4.60;;;;;;;25.74;66.94;101187.53;5109230;28;20439;-74